Time;durP1;ratioP1;P1;durP2;ratioP2;P2;SDS_P1;SDS_P2;PMS_P1;PMS_P2;Temp;Humidity;BMP_temperature;BMP_pressure;BME280_temperature;BME280_humidity;BME280_pressure;Samples;Min_cycle;Max_cycle;Signal;HPM_P1;HPM_P2
2023/05/27 00:00:13;;;;;;;9.10;4.00;;;;;;;11.22;64.52;99312.28;105188;1257;96568;-63
2023/05/27 00:02:40;;;;;;;8.30;4.00;;;;;;;11.22;64.55;99309.15;105120;1256;96613;-64
2023/05/27 00:05:08;;;;;;;7.70;4.00;;;;;;;11.23;64.42;99306.52;105316;1255;97672;-62
2023/05/27 00:07:36;;;;;;;9.40;4.30;;;;;;;11.24;64.69;99309.84;105244;1264;110833;-62
2023/05/27 00:10:03;;;;;;;11.20;5.00;;;;;;;11.25;64.73;99307.85;105263;1257;99209;-62
2023/05/27 00:12:31;;;;;;;11.10;4.20;;;;;;;11.23;65.06;99310.52;105247;1257;108693;-62
2023/05/27 00:14:58;;;;;;;11.60;5.10;;;;;;;11.18;65.21;99309.39;105271;1254;96606;-62
2023/05/27 00:17:25;;;;;;;9.40;4.30;;;;;;;11.12;65.36;99313.27;105293;1257;97546;-62
2023/05/27 00:19:53;;;;;;;10.60;4.20;;;;;;;11.06;65.43;99313.39;105275;1257;111194;-62
2023/05/27 00:22:22;;;;;;;13.80;4.70;;;;;;;11.00;65.50;99313.75;105240;1266;99533;-61
2023/05/27 00:24:50;;;;;;;10.90;4.20;;;;;;;10.92;65.87;99310.55;105060;1259;108121;-62
2023/05/27 00:27:17;;;;;;;13.90;5.20;;;;;;;10.88;65.75;99313.96;105187;1257;97431;-62
2023/05/27 00:29:45;;;;;;;13.40;6.20;;;;;;;10.83;65.81;99318.75;105286;1254;96929;-62
2023/05/27 00:32:12;;;;;;;13.10;7.90;;;;;;;10.79;66.00;99316.67;105279;1266;96533;-62
2023/05/27 00:34:39;;;;;;;15.70;7.70;;;;;;;10.74;66.19;99315.02;105273;1265;97886;-62
2023/05/27 00:37:06;;;;;;;13.50;6.20;;;;;;;10.67;66.68;99312.71;105236;1257;97058;-62
2023/05/27 00:39:33;;;;;;;12.20;5.90;;;;;;;10.58;66.55;99315.02;105223;1257;96606;-61
2023/05/27 00:42:01;;;;;;;12.80;5.50;;;;;;;10.54;66.63;99316.25;105267;1256;97845;-62
2023/05/27 00:44:29;;;;;;;9.10;5.40;;;;;;;10.50;66.58;99316.30;105299;1257;96624;-62
2023/05/27 00:46:56;;;;;;;10.20;4.70;;;;;;;10.43;66.63;99316.39;105240;1266;96533;-61
2023/05/27 00:49:26;;;;;;;13.00;4.90;;;;;;;10.34;67.15;99316.66;105202;1257;96612;-61
2023/05/27 00:51:54;;;;;;;10.70;4.20;;;;;;;10.27;67.07;99312.65;105219;1257;97733;-61
2023/05/27 00:54:21;;;;;;;13.90;4.90;;;;;;;10.22;67.25;99316.05;105294;1256;97173;-61
2023/05/27 00:56:48;;;;;;;13.70;4.90;;;;;;;10.18;67.41;99318.41;105259;1254;96536;-61
2023/05/27 00:59:16;;;;;;;11.00;5.50;;;;;;;10.14;67.04;99320.44;105296;1254;97489;-61
2023/05/27 01:01:43;;;;;;;14.70;4.70;;;;;;;10.12;67.30;99320.31;105247;1257;108763;-62
2023/05/27 01:04:12;;;;;;;15.10;4.60;;;;;;;10.10;67.48;99319.46;105234;1257;96646;-62
2023/05/27 01:06:59;;;;;;;7.70;4.50;;;;;;;10.07;67.83;99317.19;105338;1255;96975;-62
2023/05/27 01:09:39;;;;;;;10.10;4.00;;;;;;;10.06;67.80;99317.33;105058;1269;109945;-62
2023/05/27 01:12:27;;;;;;;11.90;4.20;;;;;;;10.06;68.24;99316.77;105292;1257;99098;-62
2023/05/27 01:15:03;;;;;;;9.90;3.60;;;;;;;10.02;68.61;99312.98;105243;1257;108572;-62
2023/05/27 01:17:37;;;;;;;11.20;4.20;;;;;;;9.99;68.53;99314.65;105254;1257;96453;-62
2023/05/27 01:20:06;;;;;;;9.70;3.90;;;;;;;9.99;68.43;99312.05;104900;1254;96648;-62
2023/05/27 01:22:33;;;;;;;11.40;4.60;;;;;;;9.97;68.91;99310.80;105241;1257;110884;-64
2023/05/27 01:25:00;;;;;;;11.10;4.40;;;;;;;9.92;68.71;99312.00;104876;1263;98265;-66
2023/05/27 01:27:28;;;;;;;11.80;4.80;;;;;;;9.88;68.93;99310.09;105241;1254;96568;-63
2023/05/27 01:29:56;;;;;;;8.50;4.50;;;;;;;9.82;69.20;99311.53;105256;1257;97480;-62
2023/05/27 01:32:41;;;;;;;11.40;4.30;;;;;;;9.74;69.45;99312.73;105283;1256;96574;-62
2023/05/27 01:35:50;;;;;;;9.90;4.50;;;;;;;9.67;69.56;99310.95;104992;1269;109887;-61
2023/05/27 01:38:21;;;;;;;10.40;4.50;;;;;;;9.61;69.75;99312.44;104972;1257;99218;-63
2023/05/27 01:40:50;;;;;;;10.90;4.60;;;;;;;9.59;69.71;99308.36;104989;1260;107150;-62
2023/05/27 01:43:18;;;;;;;13.00;4.50;;;;;;;9.58;69.95;99307.73;105115;1266;97086;-63
2023/05/27 01:45:46;;;;;;;11.10;4.20;;;;;;;9.57;69.63;99307.17;105072;1256;96458;-62
2023/05/27 01:48:13;;;;;;;13.70;3.90;;;;;;;9.54;70.33;99305.23;104997;1275;109003;-62
2023/05/27 01:50:40;;;;;;;11.20;4.70;;;;;;;9.52;70.01;99304.49;105235;1264;96537;-62
2023/05/27 01:53:07;;;;;;;10.30;4.20;;;;;;;9.51;70.19;99299.52;105021;1257;97950;-62
2023/05/27 01:55:35;;;;;;;12.10;4.50;;;;;;;9.53;69.97;99299.72;105023;1257;97902;-62
2023/05/27 01:58:02;;;;;;;12.10;4.60;;;;;;;9.54;69.82;99300.75;105051;1257;97873;-62
2023/05/27 02:00:29;;;;;;;10.90;4.50;;;;;;;9.56;69.91;99295.52;105207;1257;97883;-61
2023/05/27 02:02:56;;;;;;;13.30;4.60;;;;;;;9.56;70.00;99296.73;105096;1257;98559;-61
2023/05/27 02:05:24;;;;;;;14.20;5.50;;;;;;;9.51;70.26;99300.73;105098;1257;98335;-61
2023/05/27 02:07:51;;;;;;;10.60;4.60;;;;;;;9.44;70.62;99301.02;105139;1257;97908;-61
2023/05/27 02:10:18;;;;;;;12.60;4.70;;;;;;;9.36;71.30;99299.95;105284;1257;97918;-61
2023/05/27 02:12:47;;;;;;;14.00;4.90;;;;;;;9.31;71.15;99301.77;105276;1257;99193;-61
2023/05/27 02:15:15;;;;;;;11.10;5.10;;;;;;;9.31;70.95;99298.42;105088;1255;98708;-61
2023/05/27 02:17:44;;;;;;;15.10;5.20;;;;;;;9.26;71.14;99300.31;105174;1258;108648;-61
2023/05/27 02:20:12;;;;;;;12.10;5.40;;;;;;;9.22;71.29;99300.05;105086;1266;97886;-61
2023/05/27 02:22:40;;;;;;;12.70;5.10;;;;;;;9.19;71.25;99304.12;104949;1259;98014;-61
2023/05/27 02:25:07;;;;;;;19.00;5.70;;;;;;;9.18;71.09;99306.54;105106;1254;97906;-61
2023/05/27 02:27:34;;;;;;;17.80;6.30;;;;;;;9.15;71.35;99312.91;105113;1266;97970;-61
2023/05/27 02:30:01;;;;;;;12.20;5.30;;;;;;;9.10;71.64;99312.56;105254;1266;98015;-61
2023/05/27 02:32:28;;;;;;;14.10;5.40;;;;;;;9.10;71.40;99318.35;105195;1257;99189;-62
2023/05/27 02:34:56;;;;;;;10.80;5.30;;;;;;;9.09;71.46;99319.69;105197;1257;97968;-62
2023/05/27 02:37:24;;;;;;;12.50;5.40;;;;;;;9.07;71.58;99324.96;105086;1265;99205;-62
2023/05/27 02:39:53;;;;;;;14.00;5.30;;;;;;;9.07;71.73;99326.48;105262;1266;98052;-61
2023/05/27 02:42:20;;;;;;;11.00;4.90;;;;;;;9.07;71.80;99326.70;105071;1259;108591;-62
2023/05/27 02:44:47;;;;;;;13.30;4.90;;;;;;;9.07;71.93;99329.38;105116;1266;98002;-63
2023/05/27 02:47:14;;;;;;;12.70;5.60;;;;;;;9.08;71.79;99325.91;105140;1257;97982;-66
2023/05/27 02:49:41;;;;;;;10.00;4.80;;;;;;;9.06;72.02;99327.58;105295;1266;98480;-63
2023/05/27 02:52:09;;;;;;;12.40;5.00;;;;;;;9.05;72.39;99326.39;105295;1257;97912;-63
2023/05/27 02:54:36;;;;;;;11.50;5.00;;;;;;;9.01;72.39;99326.21;105256;1264;99215;-63
2023/05/27 02:57:04;;;;;;;12.90;4.80;;;;;;;8.95;72.61;99327.20;105235;1257;98810;-63
2023/05/27 02:59:31;;;;;;;12.50;4.50;;;;;;;8.91;72.76;99331.05;105289;1266;99295;-62
2023/05/27 03:01:58;;;;;;;10.80;5.20;;;;;;;8.87;72.97;99333.75;105289;1257;99185;-63
2023/05/27 03:04:25;;;;;;;12.90;5.50;;;;;;;8.82;73.19;99341.02;105188;1256;98817;-63
2023/05/27 03:06:54;;;;;;;10.80;4.80;;;;;;;8.74;73.59;99344.56;105244;1265;97927;-63
2023/05/27 03:09:21;;;;;;;14.70;4.70;;;;;;;8.63;74.55;99345.84;104964;1267;97934;-61
2023/05/27 03:11:48;;;;;;;13.70;4.60;;;;;;;8.56;74.64;99346.80;105227;1267;97909;-61
2023/05/27 03:14:15;;;;;;;9.40;4.60;;;;;;;8.49;75.35;99344.16;105226;1261;97951;-62
2023/05/27 03:16:42;;;;;;;11.00;4.80;;;;;;;8.45;75.44;99345.65;105219;1257;97864;-60
2023/05/27 03:19:10;;;;;;;12.00;5.10;;;;;;;8.44;75.17;99341.30;105079;1257;99186;-62
2023/05/27 03:21:37;;;;;;;12.70;4.90;;;;;;;8.46;75.40;99343.73;105196;1276;97912;-63
2023/05/27 03:24:04;;;;;;;9.70;5.20;;;;;;;8.49;75.04;99343.66;105264;1257;97921;-63
2023/05/27 03:26:31;;;;;;;16.20;4.80;;;;;;;8.52;75.11;99347.67;105288;1266;97879;-63
2023/05/27 03:28:58;;;;;;;12.20;5.00;;;;;;;8.56;75.46;99351.25;105261;1266;97990;-63
2023/05/27 03:31:25;;;;;;;11.40;4.90;;;;;;;8.56;75.99;99351.02;105174;1267;99225;-62
2023/05/27 03:33:52;;;;;;;9.20;5.10;;;;;;;8.56;76.11;99357.70;105003;1257;98050;-62
2023/05/27 03:36:20;;;;;;;12.80;5.30;;;;;;;8.58;76.21;99360.02;105049;1266;99116;-62
2023/05/27 03:38:47;;;;;;;10.70;5.20;;;;;;;8.63;76.36;99360.11;105249;1261;99152;-63
2023/05/27 03:41:15;;;;;;;15.10;5.20;;;;;;;8.63;76.95;99364.48;105114;1257;99167;-62
2023/05/27 03:43:41;;;;;;;15.40;4.90;;;;;;;8.60;77.38;99370.67;105230;1266;97963;-63
2023/05/27 03:46:09;;;;;;;11.60;4.80;;;;;;;8.60;77.77;99381.32;105253;1258;97956;-62
2023/05/27 03:48:36;;;;;;;11.80;4.70;;;;;;;8.61;77.83;99385.04;105068;1266;97857;-62
2023/05/27 03:51:04;;;;;;;14.80;5.20;;;;;;;8.64;77.30;99383.60;105287;1266;97979;-62
2023/05/27 03:53:31;;;;;;;10.80;5.40;;;;;;;8.71;78.03;99385.36;105208;1257;98392;-63
2023/05/27 03:55:58;;;;;;;13.30;4.80;;;;;;;8.81;77.64;99387.65;105179;1258;97991;-63
2023/05/27 03:58:26;;;;;;;11.40;5.20;;;;;;;8.90;77.69;99389.38;105252;1266;99186;-63
2023/05/27 04:00:54;;;;;;;12.40;4.70;;;;;;;9.05;77.18;99389.11;105297;1270;98402;-63
2023/05/27 04:03:22;;;;;;;17.50;4.80;;;;;;;9.16;76.77;99391.92;105122;1264;98770;-63
2023/05/27 04:05:51;;;;;;;12.00;4.90;;;;;;;9.26;76.61;99394.36;105088;1257;108585;-62
2023/05/27 04:08:25;;;;;;;12.20;4.60;;;;;;;9.35;76.42;99388.59;105134;1267;99021;-64
2023/05/27 04:10:54;;;;;;;13.30;5.40;;;;;;;9.45;76.56;99389.15;105150;1256;97890;-68
2023/05/27 04:13:21;;;;;;;12.90;5.20;;;;;;;9.56;76.22;99396.34;105300;1266;112181;-61
2023/05/27 04:15:48;;;;;;;11.30;5.00;;;;;;;9.68;76.04;99391.56;105243;1266;98521;-62
2023/05/27 04:18:16;;;;;;;15.60;5.50;;;;;;;9.80;76.00;99398.55;105237;1265;98000;-62
2023/05/27 04:20:46;;;;;;;15.20;5.00;;;;;;;9.89;76.02;99400.70;105281;1266;97905;-62
2023/05/27 04:23:14;;;;;;;12.90;5.20;;;;;;;9.95;75.80;99402.98;105299;1257;98023;-62
2023/05/27 04:25:42;;;;;;;12.40;4.90;;;;;;;10.04;75.64;99404.31;105105;1259;111962;-62
2023/05/27 04:28:09;;;;;;;15.30;5.00;;;;;;;10.12;75.04;99404.71;105131;1260;98164;-62
2023/05/27 04:30:39;;;;;;;10.50;4.50;;;;;;;10.15;75.12;99402.86;105296;1257;108713;-62
2023/05/27 04:33:11;;;;;;;10.80;4.80;;;;;;;10.23;75.16;99407.70;105275;1257;97967;-62
2023/05/27 04:35:40;;;;;;;11.60;4.90;;;;;;;10.27;75.12;99403.21;105151;1259;98228;-62
2023/05/27 04:38:07;;;;;;;12.20;5.20;;;;;;;10.27;75.01;99405.23;105280;1257;112300;-62
2023/05/27 04:40:35;;;;;;;14.50;5.30;;;;;;;10.35;75.08;99403.17;105225;1266;99189;-63
2023/05/27 04:43:02;;;;;;;12.60;4.50;;;;;;;10.38;74.63;99400.29;105249;1266;108788;-62
2023/05/27 04:45:29;;;;;;;9.20;4.30;;;;;;;10.39;74.23;99399.16;105239;1266;98887;-62
2023/05/27 04:47:57;;;;;;;10.40;4.10;;;;;;;10.45;74.71;99400.27;105193;1266;98007;-62
2023/05/27 04:50:24;;;;;;;16.20;5.20;;;;;;;10.54;74.10;99402.67;105303;1257;97910;-62
2023/05/27 04:52:53;;;;;;;11.50;4.50;;;;;;;10.59;74.61;99403.05;105239;1257;99186;-63
2023/05/27 04:55:20;;;;;;;17.70;5.00;;;;;;;10.71;74.10;99403.39;105054;1261;108317;-62
2023/05/27 04:57:47;;;;;;;12.30;5.30;;;;;;;10.78;74.06;99404.06;105177;1258;99320;-64
2023/05/27 05:00:22;;;;;;;10.30;4.40;;;;;;;10.85;74.07;99403.78;105238;1266;99087;-63
2023/05/27 05:03:00;;;;;;;8.80;4.10;;;;;;;10.98;73.71;99402.55;105303;1256;112335;-63
2023/05/27 05:05:28;;;;;;;9.40;3.90;;;;;;;11.10;73.04;99403.41;105232;1266;99033;-61
2023/05/27 05:07:55;;;;;;;11.60;4.20;;;;;;;11.16;73.12;99403.02;105043;1259;107596;-62
2023/05/27 05:10:22;;;;;;;13.50;4.10;;;;;;;11.24;72.56;99405.20;105241;1266;97952;-62
2023/05/27 05:12:49;;;;;;;12.60;5.30;;;;;;;11.29;71.61;99405.73;105147;1258;97911;-61
2023/05/27 05:15:17;;;;;;;11.80;4.20;;;;;;;11.37;72.53;99409.65;105204;1256;99170;-63
2023/05/27 05:17:44;;;;;;;8.20;3.30;;;;;;;11.55;71.70;99409.89;105276;1266;97904;-66
2023/05/27 05:20:12;;;;;;;11.40;3.70;;;;;;;11.59;70.67;99408.50;106693;1257;98083;-64
2023/05/27 05:22:40;;;;;;;8.00;2.90;;;;;;;11.60;70.62;99408.94;105097;1266;98004;-63
2023/05/27 05:25:07;;;;;;;11.50;5.00;;;;;;;11.66;70.00;99409.49;105030;1269;98788;-63
2023/05/27 05:27:36;;;;;;;8.40;3.60;;;;;;;11.67;69.54;99406.77;104925;1260;111741;-63
2023/05/27 05:30:04;;;;;;;14.20;5.50;;;;;;;11.68;69.99;99410.55;104777;1270;99210;-66
2023/05/27 05:32:31;;;;;;;8.10;4.10;;;;;;;11.79;70.08;99413.63;104887;1263;107684;-63
2023/05/27 05:34:59;;;;;;;9.10;3.10;;;;;;;11.91;69.33;99413.52;105002;1259;97898;-63
2023/05/27 05:37:26;;;;;;;7.50;2.70;;;;;;;12.00;68.69;99415.13;105221;1268;97978;-63
2023/05/27 05:39:55;;;;;;;9.20;4.10;;;;;;;12.05;68.26;99412.10;105095;1263;97905;-65
2023/05/27 05:42:24;;;;;;;14.70;4.40;;;;;;;12.08;67.83;99406.20;104980;1260;98449;-65
2023/05/27 05:44:52;;;;;;;10.20;4.50;;;;;;;12.10;67.98;99410.13;105018;1254;107502;-62
2023/05/27 05:47:19;;;;;;;7.70;3.20;;;;;;;12.17;67.88;99411.73;105281;1268;98578;-63
2023/05/27 05:49:46;;;;;;;9.30;3.80;;;;;;;12.26;67.57;99412.54;105255;1267;97891;-63
2023/05/27 05:52:14;;;;;;;12.30;4.40;;;;;;;12.44;67.69;99411.30;105250;1256;97902;-63
2023/05/27 05:54:41;;;;;;;10.80;4.60;;;;;;;12.60;67.07;99408.58;105288;1256;97880;-62
2023/05/27 05:57:08;;;;;;;14.50;3.90;;;;;;;12.78;66.98;99410.73;105207;1266;97902;-63
2023/05/27 05:59:35;;;;;;;11.70;3.50;;;;;;;12.97;65.57;99412.69;105214;1266;99192;-63
2023/05/27 06:02:03;;;;;;;11.70;3.80;;;;;;;13.11;64.58;99416.23;105147;1264;98861;-63
2023/05/27 06:04:30;;;;;;;14.20;3.50;;;;;;;13.17;64.22;99417.25;105227;1258;98001;-63
2023/05/27 06:06:57;;;;;;;10.00;3.40;;;;;;;13.23;64.47;99413.30;105190;1266;97898;-63
2023/05/27 06:09:28;;;;;;;11.70;3.10;;;;;;;13.41;63.00;99420.35;105052;1268;107549;-63
2023/05/27 06:11:55;;;;;;;13.80;3.50;;;;;;;13.48;62.41;99415.99;105143;1261;98719;-64
2023/05/27 06:14:22;;;;;;;10.00;3.20;;;;;;;13.55;61.85;99416.30;105267;1258;97806;-62
2023/05/27 06:16:50;;;;;;;10.00;3.60;;;;;;;13.62;61.49;99414.38;105293;1266;97864;-63
2023/05/27 06:19:17;;;;;;;14.00;3.20;;;;;;;13.77;61.70;99420.03;105306;1255;97955;-62
2023/05/27 06:21:45;;;;;;;12.80;3.50;;;;;;;13.84;60.31;99419.55;105225;1266;97877;-63
2023/05/27 06:24:12;;;;;;;9.30;2.90;;;;;;;14.00;60.98;99423.21;105228;1266;98007;-63
2023/05/27 06:26:39;;;;;;;10.60;3.40;;;;;;;14.23;59.49;99420.46;105236;1264;99212;-62
2023/05/27 06:29:07;;;;;;;9.70;3.20;;;;;;;14.37;58.52;99419.64;105226;1266;97930;-62
2023/05/27 06:31:34;;;;;;;8.50;3.20;;;;;;;14.45;57.87;99422.61;105281;1261;98312;-65
2023/05/27 06:34:01;;;;;;;6.70;3.20;;;;;;;14.55;58.37;99419.92;105253;1266;99218;-62
2023/05/27 06:36:28;;;;;;;7.80;3.10;;;;;;;14.74;58.83;99416.46;105242;1256;99119;-61
2023/05/27 06:38:56;;;;;;;11.20;3.30;;;;;;;15.04;58.54;99417.34;105254;1254;99030;-61
2023/05/27 06:41:23;;;;;;;6.00;3.10;;;;;;;14.98;56.56;99412.77;105147;1267;99075;-61
2023/05/27 06:43:50;;;;;;;8.70;2.80;;;;;;;14.90;56.27;99420.06;105142;1260;99222;-61
2023/05/27 06:46:18;;;;;;;9.80;3.30;;;;;;;14.95;56.82;99422.57;105162;1266;99192;-61
2023/05/27 06:48:45;;;;;;;8.50;2.50;;;;;;;15.05;55.13;99429.55;105079;1254;97905;-62
2023/05/27 06:51:12;;;;;;;10.10;3.40;;;;;;;14.97;53.81;99427.69;104994;1254;97921;-61
2023/05/27 06:53:40;;;;;;;11.40;2.60;;;;;;;15.04;53.56;99430.06;105317;1267;98714;-63
2023/05/27 06:56:07;;;;;;;9.40;2.80;;;;;;;15.09;54.04;99431.59;105119;1264;97889;-62
2023/05/27 06:58:34;;;;;;;8.50;2.40;;;;;;;15.22;53.73;99432.81;105304;1257;98594;-63
2023/05/27 07:01:01;;;;;;;9.00;2.00;;;;;;;15.25;53.20;99433.11;105295;1268;97996;-61
2023/05/27 07:03:29;;;;;;;7.00;2.40;;;;;;;15.24;53.36;99435.66;105296;1255;98411;-61
2023/05/27 07:05:56;;;;;;;8.10;2.90;;;;;;;15.32;53.65;99436.08;105291;1259;97986;-60
2023/05/27 07:08:23;;;;;;;9.00;2.90;;;;;;;15.43;53.33;99433.58;105252;1275;97902;-60
2023/05/27 07:10:51;;;;;;;8.50;3.10;;;;;;;15.37;52.62;99433.10;105234;1258;98817;-60
2023/05/27 07:13:18;;;;;;;9.30;3.60;;;;;;;15.42;53.30;99429.97;105228;1264;97855;-61
2023/05/27 07:15:46;;;;;;;9.20;2.90;;;;;;;15.71;54.10;99427.50;105270;1266;97826;-63
2023/05/27 07:18:13;;;;;;;6.70;2.60;;;;;;;15.89;52.73;99430.79;105254;1257;97918;-61
2023/05/27 07:20:40;;;;;;;9.40;2.90;;;;;;;15.98;53.25;99429.44;105188;1266;97899;-61
2023/05/27 07:23:08;;;;;;;8.40;3.20;;;;;;;16.17;52.97;99432.40;105249;1266;99578;-62
2023/05/27 07:25:36;;;;;;;10.30;3.90;;;;;;;16.29;53.75;99427.02;105283;1257;98056;-62
2023/05/27 07:28:03;;;;;;;10.90;3.40;;;;;;;16.45;53.00;99427.58;105201;1266;99186;-61
2023/05/27 07:30:30;;;;;;;11.30;4.10;;;;;;;16.48;52.67;99427.23;105218;1266;99198;-61
2023/05/27 07:32:58;;;;;;;9.80;3.20;;;;;;;16.57;53.08;99425.86;105185;1264;97880;-61
2023/05/27 07:35:25;;;;;;;12.00;3.90;;;;;;;16.92;53.02;99427.21;105028;1268;99228;-61
2023/05/27 07:37:52;;;;;;;14.20;3.80;;;;;;;17.13;52.49;99425.66;105290;1254;97829;-61
2023/05/27 07:40:20;;;;;;;15.00;4.50;;;;;;;17.37;52.94;99426.66;105224;1258;97971;-62
2023/05/27 07:42:47;;;;;;;12.40;4.60;;;;;;;17.61;53.10;99423.77;105255;1258;97988;-61
2023/05/27 07:45:14;;;;;;;10.00;3.30;;;;;;;17.96;53.09;99420.11;105259;1266;97982;-61
2023/05/27 07:47:41;;;;;;;10.40;3.60;;;;;;;18.34;52.30;99422.23;104942;1266;99183;-61
2023/05/27 07:50:09;;;;;;;13.50;4.10;;;;;;;18.51;51.57;99423.77;105202;1263;97883;-62
2023/05/27 07:52:36;;;;;;;10.20;3.70;;;;;;;18.77;51.76;99426.48;105173;1271;97956;-61
2023/05/27 07:55:04;;;;;;;12.10;3.90;;;;;;;19.17;51.77;99423.92;105390;1264;98000;-62
2023/05/27 07:57:31;;;;;;;9.90;3.70;;;;;;;19.62;49.94;99426.33;105274;1276;97944;-62
2023/05/27 07:59:59;;;;;;;9.60;3.90;;;;;;;19.32;47.27;99416.31;105263;1258;97892;-62
2023/05/27 08:02:26;;;;;;;8.90;3.00;;;;;;;19.13;49.03;99418.71;105271;1253;97904;-61
2023/05/27 08:04:53;;;;;;;15.50;3.80;;;;;;;19.33;49.38;99415.38;105251;1258;99220;-61
2023/05/27 08:07:21;;;;;;;8.70;3.60;;;;;;;19.61;50.30;99419.63;105224;1257;97992;-61
2023/05/27 08:09:48;;;;;;;8.40;3.70;;;;;;;19.98;48.39;99416.28;105257;1254;97864;-61
2023/05/27 08:12:15;;;;;;;11.30;3.10;;;;;;;20.17;48.74;99414.83;105101;1254;98913;-61
2023/05/27 08:14:43;;;;;;;9.70;3.20;;;;;;;20.61;47.03;99409.23;105120;1266;98797;-64
2023/05/27 08:17:10;;;;;;;9.60;2.80;;;;;;;20.37;44.88;99407.81;105074;1260;99201;-62
2023/05/27 08:19:38;;;;;;;10.90;3.20;;;;;;;20.17;46.38;99411.11;105009;1270;97937;-66
2023/05/27 08:22:08;;;;;;;10.80;3.10;;;;;;;20.55;47.96;99409.10;105198;1266;99217;-61
2023/05/27 08:24:36;;;;;;;8.80;3.30;;;;;;;20.78;46.28;99402.52;105042;1260;97973;-62
2023/05/27 08:27:05;;;;;;;9.80;3.00;;;;;;;20.78;45.93;99401.25;105005;1267;347888;-61
2023/05/27 08:29:33;;;;;;;11.40;3.30;;;;;;;20.71;44.48;99403.01;105256;1263;112183;-62
2023/05/27 08:32:00;;;;;;;14.10;3.60;;;;;;;20.81;44.82;99403.45;105079;1260;99318;-62
2023/05/27 08:34:27;;;;;;;11.00;3.80;;;;;;;21.14;45.85;99404.73;105186;1267;98734;-63
2023/05/27 08:36:55;;;;;;;9.10;3.30;;;;;;;21.44;45.73;99395.71;105204;1257;97966;-62
2023/05/27 08:39:22;;;;;;;9.70;3.50;;;;;;;21.66;44.93;99396.76;105247;1257;97886;-62
2023/05/27 08:41:52;;;;;;;10.70;3.20;;;;;;;21.94;44.30;99394.70;105206;1254;97907;-63
2023/05/27 08:44:23;;;;;;;8.20;3.20;;;;;;;21.98;43.43;99395.73;105087;1261;98484;-63
2023/05/27 08:46:50;;;;;;;8.40;3.20;;;;;;;22.21;42.04;99392.98;105208;1268;108592;-62
2023/05/27 08:49:18;;;;;;;8.20;3.20;;;;;;;22.21;42.01;99391.22;105282;1258;98579;-62
2023/05/27 08:51:46;;;;;;;9.10;3.20;;;;;;;22.14;41.05;99396.61;105251;1261;97900;-62
2023/05/27 08:54:13;;;;;;;8.80;3.10;;;;;;;22.05;41.15;99398.30;105221;1257;111853;-62
2023/05/27 08:56:43;;;;;;;11.10;3.70;;;;;;;22.08;41.42;99398.75;105230;1268;99174;-62
2023/05/27 08:59:11;;;;;;;8.20;2.80;;;;;;;21.99;41.30;99390.25;105040;1261;107550;-62
2023/05/27 09:01:40;;;;;;;7.40;3.00;;;;;;;22.22;41.22;99390.67;105228;1260;97947;-62
2023/05/27 09:04:07;;;;;;;10.10;3.50;;;;;;;22.46;41.13;99388.56;105263;1254;99073;-62
2023/05/27 09:06:35;;;;;;;9.70;3.30;;;;;;;22.66;40.25;99384.39;105075;1271;98091;-62
2023/05/27 09:09:02;;;;;;;8.10;3.60;;;;;;;22.58;39.58;99384.42;105245;1254;97927;-62
2023/05/27 09:11:34;;;;;;;10.40;3.20;;;;;;;22.39;39.46;99376.56;105196;1260;97937;-62
2023/05/27 09:14:01;;;;;;;9.90;3.30;;;;;;;21.97;40.10;99371.88;105070;1258;99106;-62
2023/05/27 09:16:29;;;;;;;10.70;3.50;;;;;;;21.79;40.12;99369.19;105280;1254;98201;-61
2023/05/27 09:18:57;;;;;;;9.60;3.30;;;;;;;21.76;39.65;99366.50;105263;1257;111868;-62
2023/05/27 09:21:26;;;;;;;8.30;3.00;;;;;;;22.04;40.12;99363.84;105307;1266;97984;-62
2023/05/27 09:23:59;;;;;;;6.50;3.10;;;;;;;22.03;38.45;99364.39;105280;1267;108559;-62
2023/05/27 09:26:28;;;;;;;10.80;3.30;;;;;;;22.13;39.15;99358.33;105259;1268;99209;-63
2023/05/27 09:28:57;;;;;;;9.90;3.00;;;;;;;22.17;38.08;99358.29;105296;1258;97892;-63
2023/05/27 09:31:24;;;;;;;9.80;3.20;;;;;;;21.68;38.20;99357.10;105274;1254;111783;-62
2023/05/27 09:33:52;;;;;;;9.00;3.30;;;;;;;21.58;38.55;99352.95;105042;1254;99062;-62
2023/05/27 09:36:22;;;;;;;8.80;3.40;;;;;;;21.89;39.17;99345.67;105034;1257;97997;-62
2023/05/27 09:38:50;;;;;;;;;;;;;;;22.14;39.47;99344.70;105118;1254;97985;-61
2023/05/27 09:41:27;;;;;;;8.80;2.90;;;;;;;21.98;38.71;99343.19;105239;1257;97792;-64
2023/05/27 09:43:55;;;;;;;10.00;3.00;;;;;;;22.43;39.24;99347.35;105076;1254;110785;-61
2023/05/27 09:46:25;;;;;;;7.80;3.10;;;;;;;22.87;38.79;99345.85;105090;1260;98007;-61
2023/05/27 09:48:54;;;;;;;7.40;3.00;;;;;;;22.98;37.74;99352.84;105209;1253;108532;-62
2023/05/27 09:51:23;;;;;;;12.50;3.50;;;;;;;22.89;38.34;99353.13;105293;1256;97985;-61
2023/05/27 09:53:56;;;;;;;8.80;3.10;;;;;;;23.21;37.90;99351.00;105113;1267;98069;-61
2023/05/27 09:56:27;;;;;;;8.10;3.30;;;;;;;22.93;37.95;99351.43;105238;1266;110536;-61
2023/05/27 09:59:00;;;;;;;7.50;2.90;;;;;;;23.01;37.42;99351.13;105300;1254;99105;-62
2023/05/27 10:01:29;;;;;;;7.80;2.80;;;;;;;23.36;37.40;99350.79;105098;1259;107768;-61
2023/05/27 10:03:56;;;;;;;9.60;3.20;;;;;;;22.87;36.16;99354.80;104975;1261;98963;-62
2023/05/27 10:06:26;;;;;;;9.80;3.40;;;;;;;22.42;37.22;99354.27;105198;1257;97994;-61
2023/05/27 10:08:55;;;;;;;9.70;3.20;;;;;;;22.36;38.29;99355.93;105233;1254;112457;-61
2023/05/27 10:11:23;;;;;;;8.10;3.30;;;;;;;23.09;37.70;99357.52;105294;1257;99218;-61
2023/05/27 10:13:52;;;;;;;8.90;3.60;;;;;;;23.49;37.59;99354.35;104964;1260;107276;-62
2023/05/27 10:16:23;;;;;;;10.80;2.90;;;;;;;24.06;37.58;99349.46;105083;1258;98004;-62
2023/05/27 10:18:54;;;;;;;8.10;2.80;;;;;;;24.61;36.76;99349.71;104919;1261;98087;-62
2023/05/27 10:21:24;;;;;;;7.40;3.30;;;;;;;24.75;35.28;99349.45;105005;1261;111320;-62
2023/05/27 10:24:02;;;;;;;7.30;2.80;;;;;;;24.59;35.59;99348.67;104781;1260;99236;-62
2023/05/27 10:26:44;;;;;;;8.90;2.90;;;;;;;24.95;34.73;99345.64;105052;1257;108540;-62
2023/05/27 10:29:19;;;;;;;9.90;3.20;;;;;;;25.23;35.74;99344.02;105036;1260;98071;-62
2023/05/27 10:31:49;;;;;;;10.50;3.00;;;;;;;25.57;33.94;99338.47;105219;1267;97967;-61
2023/05/27 10:34:19;;;;;;;6.30;2.60;;;;;;;25.14;32.90;99337.73;105016;1269;111760;-62
2023/05/27 10:36:47;;;;;;;6.60;3.00;;;;;;;23.88;33.72;99335.55;105298;1254;97960;-60
2023/05/27 10:39:16;;;;;;;9.60;3.50;;;;;;;22.87;35.21;99339.30;104973;1253;107720;-61
2023/05/27 10:41:54;;;;;;;8.60;2.90;;;;;;;22.45;35.67;99335.48;105072;1263;98059;-60
2023/05/27 10:44:36;;;;;;;7.70;2.70;;;;;;;22.29;35.66;99330.72;105248;1272;98794;-61
2023/05/27 10:47:13;;;;;;;6.50;2.70;;;;;;;22.17;36.74;99331.90;105249;1254;111940;-62
2023/05/27 10:49:45;;;;;;;9.80;3.10;;;;;;;22.34;37.10;99335.17;105132;1257;101502;-60
2023/05/27 10:52:15;;;;;;;9.40;2.90;;;;;;;22.69;37.10;99331.19;105178;1266;108705;-60
2023/05/27 10:54:48;;;;;;;7.90;3.00;;;;;;;22.99;36.07;99327.54;105271;1257;98798;-61
2023/05/27 10:57:17;;;;;;;6.60;2.80;;;;;;;22.76;35.83;99321.30;104975;1261;99673;-61
2023/05/27 10:59:50;;;;;;;10.00;3.20;;;;;;;23.09;36.35;99317.27;105277;1256;112126;-64
2023/05/27 11:02:19;;;;;;;5.90;2.70;;;;;;;23.51;35.50;99314.89;104983;1260;98235;-64
2023/05/27 11:04:48;;;;;;;5.40;2.80;;;;;;;23.87;36.09;99312.92;105257;1257;108643;-64
2023/05/27 11:07:20;;;;;;;7.50;2.80;;;;;;;24.54;34.53;99314.63;105290;1257;97882;-62
2023/05/27 11:09:54;;;;;;;8.20;2.60;;;;;;;25.03;34.79;99313.45;105382;1257;99218;-63
2023/05/27 11:12:23;;;;;;;9.80;2.90;;;;;;;25.49;33.59;99311.60;105254;1264;112304;-62
2023/05/27 11:14:55;;;;;;;7.90;2.90;;;;;;;25.49;32.92;99313.12;105026;1258;98718;-62
2023/05/27 11:17:23;;;;;;;6.60;2.50;;;;;;;25.17;32.33;99312.59;105234;1266;107358;-62
2023/05/27 11:19:51;;;;;;;8.10;3.00;;;;;;;24.94;31.79;99307.91;105283;1257;97918;-60
2023/05/27 11:22:19;;;;;;;8.50;2.70;;;;;;;24.90;32.33;99307.96;105078;1260;99723;-61
2023/05/27 11:25:00;;;;;;;7.30;2.90;;;;;;;24.87;32.61;99307.95;105326;1252;112045;-61
2023/05/27 11:27:37;;;;;;;7.90;2.60;;;;;;;25.13;32.50;99309.71;105293;1257;99196;-61